Gairloch, United Kingdom
Current Conditions -  °F | °C
As of 12:20 PM on Friday 28 Nov 2014 (Local Time) from EGPO Reporting Station
Few Clouds Few Clouds  
Wind Chill: 48°   Ceiling: Unl
Heat Index: 48°   Visibility: 6mi
Dew Point: 46°   Wind: 0mph
Humidity: 93%   Direction: NA
Pressure: 29.8"   Gusts: NA
Location:  57.7°N, 5.73°W
Report Text: EGPO 281220Z 00000KT 9999 FEW016 09/08 Q1009
Loading
Personal Weather Stations






























Interactive Weather Map New forecast layout! Learn more

10-Day Weather Forecast

Advertisements
Track Severe Weather on mobile